Time;durP1;ratioP1;P1;durP2;ratioP2;P2;SDS_P1;SDS_P2;PMS_P1;PMS_P2;Temp;Humidity;BMP_temperature;BMP_pressure;BME280_temperature;BME280_humidity;BME280_pressure;Samples;Min_cycle;Max_cycle;Signal;HPM_P1;HPM_P2
2022/01/18 00:00:42;;;;;;;4.68;4.47;;;;;;;5.63;100.00;103254.91;4426428;32;20099;-72
2022/01/18 00:03:07;;;;;;;3.30;3.20;;;;;;;5.58;100.00;103260.09;4427456;32;20706;-74
2022/01/18 00:05:33;;;;;;;3.45;3.35;;;;;;;5.35;100.00;103215.59;4424736;32;20068;-73
2022/01/18 00:07:58;;;;;;;3.50;3.40;;;;;;;5.56;100.00;103259.19;4422489;32;20080;-74
2022/01/18 00:10:27;;;;;;;3.58;3.47;;;;;;;5.60;100.00;103263.59;4425910;32;20084;-73
2022/01/18 00:13:09;;;;;;;4.55;4.35;;;;;;;5.64;100.00;103266.22;4431151;32;20075;-74
2022/01/18 00:15:54;;;;;;;3.40;3.30;;;;;;;5.39;100.00;103221.69;4427967;32;20488;-74
2022/01/18 00:18:19;;;;;;;3.40;3.30;;;;;;;5.15;100.00;103191.97;4428707;32;20082;-74
2022/01/18 00:21:00;;;;;;;6.05;5.75;;;;;;;5.66;100.00;103254.09;4420972;32;20060;-73
2022/01/18 00:23:26;;;;;;;3.30;3.20;;;;;;;5.66;100.00;103260.16;4426843;32;20222;-73
2022/01/18 00:25:55;;;;;;;4.80;4.60;;;;;;;5.68;100.00;103257.59;4426479;32;20064;-74
2022/01/18 00:28:21;;;;;;;3.30;3.20;;;;;;;5.69;100.00;103260.22;4425489;32;20102;-73
2022/01/18 00:36:11;;;;;;;3.33;3.22;;;;;;;5.75;100.00;103278.50;4437184;32;20143;-74
2022/01/18 00:38:47;;;;;;;3.25;3.15;;;;;;;4.81;100.00;103117.84;4442028;32;20056;-75
2022/01/18 00:41:13;;;;;;;3.30;3.20;;;;;;;5.73;100.00;103269.81;4432191;32;20092;-74
2022/01/18 00:43:39;;;;;;;4.47;4.28;;;;;;;5.73;100.00;103276.72;4421736;32;20063;-74
2022/01/18 00:46:04;;;;;;;3.60;3.50;;;;;;;5.56;100.00;103247.91;4437670;32;20072;-72
2022/01/18 00:48:34;;;;;;;3.25;3.15;;;;;;;5.73;100.00;103284.53;4426853;32;20084;-73
2022/01/18 00:51:00;;;;;;;3.30;3.20;;;;;;;5.58;100.00;103277.47;4433787;32;20113;-74
2022/01/18 00:53:30;;;;;;;3.40;3.30;;;;;;;4.16;100.00;103039.09;4429072;32;20201;-73
2022/01/18 00:58:35;;;;;;;3.53;3.42;;;;;;;5.41;100.00;103248.62;4445884;32;20577;-74
2022/01/18 01:01:01;;;;;;;3.30;3.20;;;;;;;5.69;100.00;103299.28;4430581;32;20091;-73
2022/01/18 01:03:26;;;;;;;3.37;3.28;;;;;;;5.68;100.00;103301.88;4446715;32;20179;-74
2022/01/18 01:05:52;;;;;;;4.57;4.37;;;;;;;5.69;100.00;103304.50;4426108;32;20616;-74
2022/01/18 01:08:17;;;;;;;3.50;3.40;;;;;;;5.69;100.00;103304.50;4427776;32;20067;-74
2022/01/18 01:10:42;;;;;;;4.85;4.65;;;;;;;5.69;100.00;103298.41;4432275;32;20067;-74
2022/01/18 01:13:08;;;;;;;3.50;3.40;;;;;;;5.47;100.00;103260.84;4425165;32;20537;-72
2022/01/18 01:15:44;;;;;;;3.30;3.20;;;;;;;5.72;100.00;103303.66;4432990;32;20558;-74
2022/01/18 01:18:33;;;;;;;3.50;3.40;;;;;;;5.35;100.00;103248.56;4434382;32;20072;-71
2022/01/18 01:34:41;;;;;;;3.17;3.08;;;;;;;5.68;100.00;103296.66;4441614;32;20063;-73
2022/01/18 01:42:29;;;;;;;3.90;3.60;;;;;;;5.28;100.00;103241.56;4441605;32;20421;-74
2022/01/18 01:44:56;;;;;;;3.72;3.62;;;;;;;5.63;100.00;103314.81;4426651;32;20144;-73
2022/01/18 01:47:23;;;;;;;3.28;3.17;;;;;;;5.61;100.00;103306.12;4430146;32;20096;-74
2022/01/18 01:49:50;;;;;;;4.60;4.40;;;;;;;5.59;100.00;103302.62;4422504;32;20348;-74
2022/01/18 01:52:16;;;;;;;3.50;3.40;;;;;;;5.00;100.00;103204.78;4435390;32;20060;-74
2022/01/18 01:54:41;;;;;;;4.82;4.62;;;;;;;5.62;100.00;103309.62;4428805;32;20075;-74
2022/01/18 01:57:07;;;;;;;3.30;3.20;;;;;;;5.62;100.00;103314.84;4431285;32;20347;-74
2022/01/18 01:59:32;;;;;;;3.28;3.17;;;;;;;5.60;100.00;103320.03;4426429;32;20582;-73
2022/01/18 02:01:58;;;;;;;3.30;3.20;;;;;;;5.55;100.00;103319.97;4423772;32;20068;-73
2022/01/18 02:04:23;;;;;;;3.33;3.22;;;;;;;5.56;100.00;103318.25;4434499;32;20060;-73
2022/01/18 02:06:49;;;;;;;4.78;4.57;;;;;;;5.36;100.00;103285.03;4437753;32;20087;-73
2022/01/18 02:09:14;;;;;;;3.40;3.30;;;;;;;4.24;100.00;103095.50;4424019;32;20507;-73
2022/01/18 02:11:39;;;;;;;5.10;4.75;;;;;;;5.52;100.00;103317.34;4427834;32;20082;-74
2022/01/18 02:14:07;;;;;;;3.40;3.30;;;;;;;5.55;100.00;103317.38;4428592;32;20612;-71
2022/01/18 02:22:03;;;;;;;3.62;3.53;;;;;;;5.52;100.00;103308.66;4441766;32;20086;-74
2022/01/18 02:24:28;;;;;;;3.30;3.20;;;;;;;5.47;100.00;103297.28;4427488;32;20079;-74
2022/01/18 02:26:53;;;;;;;4.50;4.30;;;;;;;5.52;100.00;103306.03;4424942;32;20064;-74
2022/01/18 02:29:19;;;;;;;3.20;3.10;;;;;;;5.51;100.00;103294.75;4424823;32;20465;-73
2022/01/18 02:31:45;;;;;;;4.68;4.47;;;;;;;5.19;100.00;103245.81;4420268;32;20084;-73
2022/01/18 02:34:14;;;;;;;3.28;3.17;;;;;;;5.48;100.00;103305.13;4426740;32;20071;-74
2022/01/18 02:36:39;;;;;;;4.57;4.37;;;;;;;5.26;100.00;103282.31;4424597;32;20068;-73
2022/01/18 02:39:05;;;;;;;3.30;3.20;;;;;;;5.43;100.00;103317.22;4437586;32;20087;-72
2022/01/18 02:41:32;;;;;;;3.20;3.10;;;;;;;5.32;100.00;103296.28;4426652;32;20067;-72
2022/01/18 02:44:08;;;;;;;3.50;3.40;;;;;;;5.41;100.00;103313.72;4422277;32;20095;-73
2022/01/18 02:46:33;;;;;;;3.20;3.10;;;;;;;5.39;100.00;103307.63;4423936;32;20068;-74
2022/01/18 02:48:59;;;;;;;5.78;3.40;;;;;;;4.81;100.00;103201.09;4423281;32;20604;-74
2022/01/18 02:51:24;;;;;;;3.20;3.10;;;;;;;4.61;100.00;103164.47;4427691;32;20160;-74
2022/01/18 02:54:03;;;;;;;5.00;4.80;;;;;;;5.41;100.00;103298.09;4425225;32;20569;-72
2022/01/18 02:56:30;;;;;;;3.08;2.97;;;;;;;5.43;100.00;103295.50;4443150;32;20072;-73
2022/01/18 02:59:06;;;;;;;4.60;4.30;;;;;;;4.93;100.00;103201.25;4419153;32;21085;-73
2022/01/18 03:04:15;;;;;;;3.40;3.30;;;;;;;5.35;100.00;103292.81;4441770;32;20075;-74
2022/01/18 03:06:40;;;;;;;4.18;3.97;;;;;;;5.35;100.00;103293.72;4422510;32;20068;-73
2022/01/18 03:09:06;;;;;;;3.60;3.40;;;;;;;5.37;100.00;103297.22;4430962;32;20075;-73
2022/01/18 03:11:31;;;;;;;3.30;3.20;;;;;;;5.37;100.00;103296.31;4421705;32;20129;-75
2022/01/18 03:13:56;;;;;;;3.40;3.30;;;;;;;5.38;100.00;103305.88;4437810;32;20071;-74
2022/01/18 03:16:22;;;;;;;3.30;3.20;;;;;;;5.36;100.00;103311.06;4429680;32;20088;-74
2022/01/18 03:18:47;;;;;;;4.65;4.45;;;;;;;5.34;100.00;103310.19;4426080;32;20073;-74
2022/01/18 03:21:13;;;;;;;3.50;3.40;;;;;;;5.35;100.00;103309.34;4428518;32;20076;-72
2022/01/18 03:23:38;;;;;;;3.55;3.45;;;;;;;5.03;100.00;103256.00;4422818;32;20378;-74
2022/01/18 03:26:14;;;;;;;3.92;3.67;;;;;;;5.27;100.00;103292.75;4429273;31;20094;-74
2022/01/18 03:28:39;;;;;;;4.12;3.95;;;;;;;5.20;100.00;103297.00;4434128;32;20090;-73
2022/01/18 03:31:05;;;;;;;3.55;3.45;;;;;;;5.34;100.00;103304.09;4439063;32;20068;-74
2022/01/18 03:33:30;;;;;;;3.10;3.00;;;;;;;5.27;100.00;103299.66;4428790;32;20079;-74
2022/01/18 03:35:56;;;;;;;3.67;3.58;;;;;;;5.33;100.00;103310.16;4426619;32;20080;-73
2022/01/18 03:38:22;;;;;;;3.50;3.40;;;;;;;5.35;100.00;103313.66;4424842;32;20093;-74
2022/01/18 03:40:47;;;;;;;4.20;4.00;;;;;;;5.36;100.00;103311.06;4429677;32;20061;-74
2022/01/18 03:43:14;;;;;;;3.30;3.20;;;;;;;5.08;100.00;103270.81;4432080;32;20194;-74
2022/01/18 03:45:43;;;;;;;4.43;4.22;;;;;;;5.35;100.00;103311.94;4442910;32;20060;-73
2022/01/18 03:48:22;;;;;;;3.25;3.15;;;;;;;5.20;100.00;103289.19;4423356;32;20074;-73
2022/01/18 03:50:48;;;;;;;4.95;4.75;;;;;;;5.23;100.00;103297.87;4426930;32;20087;-73
2022/01/18 03:53:13;;;;;;;3.15;3.05;;;;;;;5.38;100.00;103324.13;4429713;32;20155;-74
2022/01/18 03:55:38;;;;;;;3.65;3.53;;;;;;;5.34;100.00;103322.34;4424957;32;20130;-74
2022/01/18 03:58:04;;;;;;;3.45;3.35;;;;;;;5.01;100.00;103261.19;4430117;32;20468;-74
2022/01/18 04:00:29;;;;;;;3.35;3.25;;;;;;;5.34;100.00;103319.72;4431421;32;20072;-74
2022/01/18 04:02:55;;;;;;;3.92;3.72;;;;;;;5.32;100.00;103324.91;4428017;32;20082;-73
2022/01/18 04:05:20;;;;;;;3.60;3.40;;;;;;;5.32;100.00;103313.63;4431950;32;20307;-74
2022/01/18 04:07:46;;;;;;;4.72;4.53;;;;;;;5.32;100.00;103316.22;4437336;32;20627;-74
2022/01/18 04:10:11;;;;;;;3.70;3.60;;;;;;;5.23;100.00;103308.31;4430449;32;20194;-74
2022/01/18 04:12:38;;;;;;;3.55;3.42;;;;;;;4.58;100.00;103208.63;4418033;32;20079;-74
2022/01/18 04:15:05;;;;;;;3.30;3.10;;;;;;;5.33;100.00;103318.88;4444072;32;20150;-73
2022/01/18 04:30:48;;;;;;;4.87;4.68;;;;;;;5.18;100.00;103297.84;4439483;32;20061;-72
2022/01/18 04:33:13;;;;;;;3.20;3.10;;;;;;;5.32;100.00;103319.72;4431477;32;20052;-75
2022/01/18 04:35:39;;;;;;;4.37;4.18;;;;;;;2.68;100.00;102949.56;4420787;32;20609;-74
2022/01/18 04:38:04;;;;;;;3.30;3.20;;;;;;;4.01;100.00;103096.09;4430862;32;20068;-72
2022/01/18 04:40:32;;;;;;;3.10;3.00;;;;;;;4.71;100.00;103233.94;4426966;32;20088;-73
2022/01/18 04:50:52;;;;;;;4.97;4.72;;;;;;;5.27;100.00;103310.09;4434840;32;20157;-73
2022/01/18 04:53:17;;;;;;;3.10;3.00;;;;;;;4.68;100.00;103215.69;4428355;32;20064;-74
2022/01/18 04:55:43;;;;;;;4.53;4.32;;;;;;;5.22;100.00;103309.16;4427525;32;20137;-73
2022/01/18 04:58:08;;;;;;;4.10;3.90;;;;;;;5.20;100.00;103322.16;4430552;32;20388;-73
2022/01/18 05:00:34;;;;;;;3.40;3.20;;;;;;;5.10;100.00;103294.28;4429166;32;20669;-74
2022/01/18 05:02:59;;;;;;;4.10;3.90;;;;;;;5.23;100.00;103322.19;4429134;32;20072;-73
2022/01/18 05:05:27;;;;;;;3.10;3.00;;;;;;;5.25;100.00;103312.69;4429441;32;20083;-74
2022/01/18 05:07:53;;;;;;;4.47;4.28;;;;;;;5.22;100.00;103319.59;4426169;32;20068;-73
2022/01/18 05:10:20;;;;;;;4.47;4.28;;;;;;;5.21;100.00;103321.28;4425698;32;20137;-73
2022/01/18 05:12:48;;;;;;;4.75;4.55;;;;;;;4.52;100.00;103221.53;4420717;32;20068;-75
2022/01/18 05:18:55;;;;;;;4.53;4.32;;;;;;;4.98;100.00;103318.41;4440142;32;20073;-74
2022/01/18 05:23:28;;;;;;;3.20;3.10;;;;;;;5.09;100.00;103337.66;4442526;32;20137;-73
2022/01/18 05:25:53;;;;;;;4.03;3.83;;;;;;;4.36;100.00;103217.84;4427540;32;20064;-74
2022/01/18 05:28:18;;;;;;;3.35;3.25;;;;;;;3.68;100.00;103091.28;4429438;32;20083;-73
2022/01/18 05:30:44;;;;;;;4.80;4.60;;;;;;;5.10;100.00;103331.56;4428947;32;20141;-73
2022/01/18 05:33:09;;;;;;;3.20;3.10;;;;;;;4.64;100.00;103283.25;4430446;32;20083;-73
2022/01/18 05:35:35;;;;;;;3.37;3.28;;;;;;;3.82;100.00;103133.91;4430554;32;20068;-74
2022/01/18 05:38:00;;;;;;;3.47;3.37;;;;;;;4.98;100.00;103334.87;4429960;32;20132;-73
2022/01/18 05:40:25;;;;;;;3.55;3.45;;;;;;;4.97;100.00;103337.47;4438246;32;20120;-72
2022/01/18 05:42:51;;;;;;;4.50;4.30;;;;;;;4.95;100.00;103333.97;4424149;32;20059;-74
2022/01/18 05:45:16;;;;;;;3.40;3.30;;;;;;;4.93;100.00;103336.56;4427299;32;20086;-74
2022/01/18 05:47:42;;;;;;;4.85;4.65;;;;;;;4.95;100.00;103333.97;4442274;32;20087;-72
2022/01/18 05:50:08;;;;;;;3.30;3.20;;;;;;;4.45;100.00;103253.50;4431660;32;20079;-73
2022/01/18 05:52:35;;;;;;;3.28;3.17;;;;;;;4.97;100.00;103342.66;4446156;32;20482;-74
2022/01/18 05:55:01;;;;;;;3.20;3.10;;;;;;;4.84;100.00;103322.56;4429828;32;20684;-73
2022/01/18 05:57:26;;;;;;;3.20;3.10;;;;;;;4.96;100.00;103343.53;4429743;32;20124;-74
2022/01/18 05:59:54;;;;;;;13.25;5.22;;;;;;;4.93;100.00;103346.09;4431326;32;20091;-75
2022/01/18 06:02:37;;;;;;;3.50;3.40;;;;;;;4.95;100.00;103347.88;4427521;32;20707;-74
2022/01/18 06:07:46;;;;;;;4.68;4.47;;;;;;;4.15;100.00;103223.59;4444039;32;20498;-74
2022/01/18 06:10:12;;;;;;;3.30;3.20;;;;;;;4.95;100.00;103360.00;4429043;32;20076;-73
2022/01/18 06:12:39;;;;;;;4.00;3.85;;;;;;;2.37;100.00;102928.31;4421837;32;20098;-74
2022/01/18 06:15:05;;;;;;;3.30;3.20;;;;;;;4.95;100.00;103380.81;4430991;31;20102;-73
2022/01/18 06:17:30;;;;;;;3.30;3.20;;;;;;;3.50;100.00;103110.91;4426352;32;20718;-73
2022/01/18 06:19:56;;;;;;;4.12;3.92;;;;;;;4.94;100.00;103364.31;4432483;32;20086;-73
2022/01/18 06:22:21;;;;;;;3.30;3.20;;;;;;;4.95;100.00;103360.00;4421893;32;20560;-74
2022/01/18 06:24:46;;;;;;;5.05;4.85;;;;;;;4.93;100.00;103360.00;4426056;32;20123;-74
2022/01/18 06:27:12;;;;;;;3.30;3.20;;;;;;;4.13;100.00;103226.19;4426201;32;20459;-74
2022/01/18 06:29:37;;;;;;;3.75;3.60;;;;;;;4.91;100.00;103359.09;4424291;32;20242;-74
2022/01/18 06:32:04;;;;;;;3.45;3.35;;;;;;;4.91;100.00;103368.59;4431303;32;20648;-74
2022/01/18 06:34:29;;;;;;;3.37;3.28;;;;;;;4.93;100.00;103361.69;4426343;32;20060;-74
2022/01/18 06:36:55;;;;;;;3.83;3.70;;;;;;;4.67;100.00;103318.00;4427443;32;20725;-74
2022/01/18 06:39:20;;;;;;;3.33;3.22;;;;;;;4.92;100.00;103354.75;4429131;32;20072;-74
2022/01/18 06:41:45;;;;;;;5.05;4.85;;;;;;;4.49;100.00;103289.09;4426811;32;20353;-73
2022/01/18 06:44:11;;;;;;;3.62;3.53;;;;;;;4.92;100.00;103360.84;4446494;32;20467;-74
2022/01/18 06:46:36;;;;;;;3.50;3.40;;;;;;;4.90;100.00;103385.94;4433809;32;20432;-73
2022/01/18 06:49:02;;;;;;;4.93;4.53;;;;;;;4.90;100.00;103372.06;4433965;32;20171;-73
2022/01/18 06:51:27;;;;;;;3.40;3.30;;;;;;;4.90;100.00;103361.66;4423681;32;20223;-72
2022/01/18 06:53:52;;;;;;;4.95;4.75;;;;;;;4.77;100.00;103352.78;4376777;32;20596;-73
2022/01/18 06:56:18;;;;;;;3.95;3.50;;;;;;;4.70;100.00;103333.62;4431118;32;20112;-71
2022/01/18 06:58:44;;;;;;;3.50;3.40;;;;;;;4.87;100.00;103377.22;4426865;32;20206;-73
2022/01/18 07:01:10;;;;;;;3.33;3.22;;;;;;;4.84;100.00;103378.06;4426964;32;20336;-72
2022/01/18 07:03:35;;;;;;;3.30;3.20;;;;;;;4.82;100.00;103387.56;4441267;32;20079;-74
2022/01/18 07:06:00;;;;;;;3.17;3.08;;;;;;;4.35;100.00;103312.28;4424893;32;20164;-73
2022/01/18 07:08:26;;;;;;;3.75;3.40;;;;;;;4.77;100.00;103392.72;4427244;32;20371;-74
2022/01/18 07:10:51;;;;;;;5.03;4.78;;;;;;;4.62;100.00;103366.44;4440302;32;20051;-75
2022/01/18 07:13:16;;;;;;;3.50;3.40;;;;;;;4.62;100.00;103370.78;4427133;32;20064;-74
2022/01/18 07:15:42;;;;;;;4.57;4.37;;;;;;;3.99;100.00;103261.47;4422389;32;20466;-74
2022/01/18 07:18:09;;;;;;;3.08;2.97;;;;;;;4.66;100.00;103375.19;4425337;32;20141;-72
2022/01/18 07:20:35;;;;;;;3.20;3.10;;;;;;;4.79;100.00;103392.72;4445496;32;20063;-74
2022/01/18 07:23:00;;;;;;;3.60;3.40;;;;;;;4.75;100.00;103399.63;4423732;32;20073;-73
2022/01/18 07:25:26;;;;;;;3.50;3.40;;;;;;;4.79;100.00;103395.31;4428380;32;20436;-73
2022/01/18 07:27:51;;;;;;;4.78;4.57;;;;;;;4.79;100.00;103392.72;4429959;32;20363;-74
2022/01/18 07:30:17;;;;;;;3.53;3.42;;;;;;;4.76;100.00;103396.16;4442540;32;20077;-74
2022/01/18 07:32:43;;;;;;;4.37;4.18;;;;;;;4.58;100.00;103365.53;4426108;32;20202;-73
2022/01/18 07:35:09;;;;;;;3.50;3.30;;;;;;;4.35;100.00;103317.47;4421831;32;20061;-74
2022/01/18 07:37:34;;;;;;;3.15;3.05;;;;;;;4.47;100.00;103340.19;4440382;32;20068;-74
2022/01/18 07:40:00;;;;;;;3.03;2.92;;;;;;;3.89;100.00;103237.06;4426246;32;20107;-73
2022/01/18 07:42:25;;;;;;;3.50;3.40;;;;;;;4.75;100.00;103383.13;4422133;32;20096;-73
2022/01/18 07:44:51;;;;;;;4.72;4.53;;;;;;;4.75;100.00;103372.72;4424894;32;20077;-73
2022/01/18 07:47:16;;;;;;;3.50;3.30;;;;;;;4.70;100.00;103370.03;4413755;32;20072;-73
2022/01/18 07:49:41;;;;;;;5.15;4.95;;;;;;;4.85;100.00;103399.75;4422471;32;20083;-74
2022/01/18 07:52:07;;;;;;;3.97;3.78;;;;;;;4.87;100.00;103403.25;4423458;32;20464;-73
2022/01/18 07:54:32;;;;;;;3.40;3.30;;;;;;;4.90;100.00;103408.50;4440155;32;20084;-74
2022/01/18 07:56:57;;;;;;;3.70;3.60;;;;;;;4.88;100.00;103405.87;4421476;32;20215;-72
2022/01/18 07:59:23;;;;;;;3.70;3.60;;;;;;;4.92;100.00;103407.66;4423773;32;20156;-73
2022/01/18 08:01:48;;;;;;;6.85;5.30;;;;;;;4.85;100.00;103407.53;4425579;32;20371;-73
2022/01/18 08:04:13;;;;;;;3.30;3.20;;;;;;;4.82;100.00;103407.53;4423847;32;20447;-73
2022/01/18 08:06:40;;;;;;;4.68;4.47;;;;;;;4.84;100.00;103416.22;4421928;32;20148;-74
2022/01/18 08:09:05;;;;;;;3.30;3.20;;;;;;;4.90;100.00;103421.53;4422954;32;21005;-73
2022/01/18 08:11:31;;;;;;;3.70;3.60;;;;;;;4.84;100.00;103392.81;4422197;32;20091;-73
2022/01/18 08:13:57;;;;;;;3.75;3.62;;;;;;;4.94;100.00;103413.78;4422954;32;20072;-73
2022/01/18 08:18:55;;;;;;;4.20;4.00;;;;;;;4.70;100.00;103383.06;4437397;32;20444;-74
2022/01/18 08:21:20;;;;;;;3.37;3.25;;;;;;;4.91;100.00;103421.53;4425750;32;20089;-73
2022/01/18 08:23:46;;;;;;;25.62;5.50;;;;;;;4.95;100.00;103423.34;4423139;32;20072;-73
2022/01/18 08:26:11;;;;;;;3.40;3.30;;;;;;;4.99;100.00;103426.84;4427685;32;20060;-73
2022/01/18 08:28:37;;;;;;;3.75;3.62;;;;;;;4.69;100.00;103346.59;4423865;32;20088;-74
2022/01/18 08:31:03;;;;;;;3.65;3.55;;;;;;;5.13;100.00;103421.84;4424603;32;20071;-74
2022/01/18 08:33:31;;;;;;;3.50;3.40;;;;;;;5.12;100.00;103410.56;4423155;32;20141;-74
2022/01/18 08:35:59;;;;;;;4.15;3.95;;;;;;;5.31;100.00;103419.53;4437071;32;20101;-74
2022/01/18 08:38:25;;;;;;;3.95;3.75;;;;;;;5.39;100.00;103417.00;4425267;32;20072;-73
2022/01/18 08:40:50;;;;;;;5.07;4.87;;;;;;;4.19;100.00;103215.00;4436600;32;20091;-72
2022/01/18 08:43:15;;;;;;;3.65;3.55;;;;;;;5.40;100.00;103418.75;4417089;32;20115;-73
2022/01/18 08:45:41;;;;;;;4.85;4.65;;;;;;;5.46;100.00;103421.44;4424083;32;20087;-73
2022/01/18 08:48:06;;;;;;;3.50;3.40;;;;;;;5.56;100.00;103419.84;4415622;32;20063;-71
2022/01/18 08:50:32;;;;;;;3.72;3.60;;;;;;;5.60;100.00;103417.28;4423320;32;20581;-73
2022/01/18 08:52:57;;;;;;;3.30;3.20;;;;;;;5.64;100.00;103422.53;4431260;32;20064;-73
2022/01/18 08:55:23;;;;;;;3.65;3.55;;;;;;;5.34;100.00;103358.78;4419606;32;20106;-73
2022/01/18 08:57:48;;;;;;;4.82;4.62;;;;;;;5.46;100.00;103395.41;4424895;32;20152;-73
2022/01/18 09:00:15;;;;;;;4.05;3.85;;;;;;;5.72;100.00;103423.50;4420084;32;20605;-72
2022/01/18 09:02:41;;;;;;;4.85;4.65;;;;;;;5.37;100.00;103374.44;4426061;32;20079;-73
2022/01/18 09:05:06;;;;;;;3.65;3.55;;;;;;;5.86;100.00;103427.13;4426512;32;20182;-73
2022/01/18 09:07:33;;;;;;;3.60;3.50;;;;;;;5.85;100.00;103421.91;4423960;32;20092;-72
2022/01/18 09:10:03;;;;;;;4.40;4.20;;;;;;;5.96;100.00;103436.84;4429140;32;20903;-72
2022/01/18 09:12:28;;;;;;;3.70;3.60;;;;;;;6.03;100.00;103436.91;4423678;32;20090;-74
2022/01/18 09:14:53;;;;;;;4.70;4.50;;;;;;;5.95;100.00;103440.31;4427535;32;20087;-73
2022/01/18 09:17:19;;;;;;;3.65;3.55;;;;;;;5.99;100.00;103436.00;4424033;32;20157;-74
2022/01/18 09:19:44;;;;;;;5.62;5.35;;;;;;;6.10;100.00;103441.34;4422235;32;20095;-75
2022/01/18 09:22:09;;;;;;;3.67;3.58;;;;;;;6.17;100.00;103432.72;4429945;32;20071;-74
2022/01/18 09:24:35;;;;;;;3.60;3.50;;;;;;;6.03;100.00;103393.47;4422040;32;20090;-74
2022/01/18 09:27:00;;;;;;;3.70;3.60;;;;;;;6.14;100.00;103436.16;4422942;32;20061;-74
2022/01/18 09:29:26;;;;;;;3.50;3.40;;;;;;;5.65;100.00;103330.47;4421056;32;20087;-74
2022/01/18 09:31:51;;;;;;;4.95;4.75;;;;;;;6.42;100.00;103441.66;4422327;32;20082;-75
2022/01/18 09:34:17;;;;;;;4.20;3.90;;;;;;;6.31;100.00;103425.03;4428317;32;20068;-74
2022/01/18 09:36:42;;;;;;;5.28;5.07;;;;;;;6.37;100.00;103435.50;4423099;32;20613;-74
2022/01/18 09:39:08;;;;;;;3.97;3.78;;;;;;;6.43;100.00;103443.41;4440383;32;20083;-73
2022/01/18 09:41:38;;;;;;;4.05;3.85;;;;;;;6.43;100.00;103450.34;4417450;32;20570;-73
2022/01/18 09:44:03;;;;;;;4.47;4.28;;;;;;;6.56;100.00;103447.88;4433052;32;20075;-73
2022/01/18 09:46:28;;;;;;;3.70;3.60;;;;;;;6.53;100.00;103457.41;4423669;32;20623;-72
2022/01/18 09:48:54;;;;;;;4.50;4.30;;;;;;;6.64;100.00;103447.09;4422163;32;20091;-74
2022/01/18 09:51:19;;;;;;;3.70;3.60;;;;;;;6.72;100.00;103442.78;4427543;32;20498;-73
2022/01/18 09:53:45;;;;;;;4.93;4.72;;;;;;;6.83;100.00;103440.25;4421230;32;20064;-72
2022/01/18 09:56:10;;;;;;;4.00;3.80;;;;;;;6.92;100.00;103443.81;4427368;32;20083;-73
2022/01/18 09:58:36;;;;;;;3.90;3.78;;;;;;;7.01;100.00;103442.12;4423391;32;20657;-74
2022/01/18 10:01:02;;;;;;;4.82;4.62;;;;;;;7.08;100.00;103457.84;4413892;32;20091;-74
2022/01/18 10:03:32;;;;;;;3.92;3.72;;;;;;;7.01;99.80;103453.44;4421668;32;20084;-72
2022/01/18 10:05:57;;;;;;;3.75;3.65;;;;;;;7.07;100.00;103448.25;4416869;32;20946;-74
2022/01/18 10:08:23;;;;;;;4.00;3.80;;;;;;;7.13;99.85;103440.47;4424725;32;20063;-74
2022/01/18 10:10:53;;;;;;;5.07;4.87;;;;;;;7.16;98.47;103440.50;4420561;32;20218;-74
2022/01/18 10:13:21;;;;;;;4.00;3.80;;;;;;;7.21;98.28;103442.25;4423263;32;20492;-73
2022/01/18 10:16:10;;;;;;;5.28;5.07;;;;;;;7.17;96.82;103447.44;4448148;32;20438;-73
2022/01/18 10:18:49;;;;;;;4.00;3.85;;;;;;;7.16;96.93;103455.31;4433499;32;20132;-73
2022/01/18 10:21:26;;;;;;;4.00;3.80;;;;;;;7.04;96.77;103455.22;4435178;32;21046;-72
2022/01/18 10:23:51;;;;;;;5.65;5.35;;;;;;;7.10;96.99;103437.84;4434805;32;20107;-72
2022/01/18 10:26:20;;;;;;;5.10;4.60;;;;;;;7.16;96.00;103448.34;4421459;32;20085;-72
2022/01/18 10:28:46;;;;;;;5.28;5.03;;;;;;;7.29;96.55;103449.25;4421728;31;20067;-72
2022/01/18 10:31:35;;;;;;;3.75;3.65;;;;;;;7.12;95.76;103399.56;4425754;32;20098;-73
2022/01/18 10:34:20;;;;;;;4.43;4.22;;;;;;;7.62;96.33;103439.87;4432551;32;20075;-72
2022/01/18 10:37:10;;;;;;;5.57;5.37;;;;;;;7.63;95.16;103419.81;4425606;32;20075;-73
2022/01/18 10:39:43;;;;;;;3.90;3.75;;;;;;;7.40;93.98;103418.00;4452902;32;20194;-75
2022/01/18 10:42:17;;;;;;;4.50;4.30;;;;;;;7.59;93.50;103439.84;4424336;32;20876;-74
2022/01/18 10:44:45;;;;;;;5.15;4.95;;;;;;;7.53;94.00;103434.59;4427832;32;20633;-75
2022/01/18 10:47:11;;;;;;;3.78;3.67;;;;;;;7.39;94.62;103431.91;4431875;32;20072;-74
2022/01/18 10:49:47;;;;;;;4.25;4.05;;;;;;;7.39;93.91;103431.91;4424767;32;20094;-75
2022/01/18 10:52:12;;;;;;;3.95;3.80;;;;;;;7.38;94.34;103430.19;4427204;32;20561;-73
2022/01/18 10:54:48;;;;;;;4.22;4.05;;;;;;;7.47;93.96;103435.44;4444382;32;20076;-73
2022/01/18 10:57:18;;;;;;;4.40;4.20;;;;;;;7.58;93.89;103431.13;4444066;32;20082;-74
2022/01/18 10:59:43;;;;;;;5.43;5.20;;;;;;;7.61;93.52;103426.78;4430513;32;20075;-75
2022/01/18 11:02:15;;;;;;;5.25;4.85;;;;;;;7.51;93.23;103387.53;4421099;32;20078;-74
2022/01/18 11:04:43;;;;;;;6.68;6.03;;;;;;;7.02;93.13;103282.88;4450608;32;20137;-74
2022/01/18 11:07:08;;;;;;;4.40;4.20;;;;;;;7.86;92.81;103420.78;4425307;32;20072;-73
2022/01/18 11:09:34;;;;;;;4.05;3.85;;;;;;;7.87;92.08;103422.53;4421620;32;20157;-72
2022/01/18 11:12:00;;;;;;;4.50;4.20;;;;;;;7.89;92.03;103420.78;4438731;32;20127;-74
2022/01/18 11:14:25;;;;;;;4.10;3.90;;;;;;;7.33;91.77;103332.59;4424765;32;20347;-74
2022/01/18 11:16:51;;;;;;;5.97;5.68;;;;;;;7.87;91.69;103414.69;4423998;32;20095;-74
2022/01/18 11:19:39;;;;;;;4.10;3.90;;;;;;;7.94;92.25;103410.34;4426210;32;20072;-75
2022/01/18 11:22:08;;;;;;;4.10;3.90;;;;;;;7.99;92.42;103414.69;4435759;32;20305;-75
2022/01/18 11:24:40;;;;;;;4.00;3.80;;;;;;;7.90;92.05;103406.00;4428913;32;20809;-74
2022/01/18 11:27:10;;;;;;;4.15;3.95;;;;;;;7.84;91.84;103401.59;4427655;32;20065;-75
2022/01/18 11:29:36;;;;;;;3.87;3.72;;;;;;;7.67;92.99;103404.16;4419648;32;20341;-76
2022/01/18 11:32:02;;;;;;;4.43;4.22;;;;;;;7.39;93.69;103364.84;4427900;32;20098;-75
2022/01/18 11:34:49;;;;;;;4.40;4.20;;;;;;;7.75;93.93;103401.56;4425676;32;20075;-75
2022/01/18 11:37:34;;;;;;;4.18;3.97;;;;;;;7.82;92.67;103400.72;4451260;32;20075;-75
2022/01/18 11:40:01;;;;;;;5.03;4.72;;;;;;;7.92;92.85;103404.25;4449600;32;20629;-74
2022/01/18 11:42:38;;;;;;;4.60;4.37;;;;;;;7.94;92.32;103394.66;4437045;32;20071;-75
2022/01/18 11:45:25;;;;;;;4.72;4.35;;;;;;;7.95;91.63;103397.25;4425416;32;20074;-74
2022/01/18 11:48:23;;;;;;;5.80;5.50;;;;;;;8.12;91.77;103389.47;4451007;32;20159;-73
2022/01/18 11:50:50;;;;;;;5.95;5.65;;;;;;;8.20;92.32;103381.63;4436882;32;20067;-75
2022/01/18 11:53:22;;;;;;;4.10;3.90;;;;;;;8.20;91.08;103386.88;4424129;32;20083;-76
2022/01/18 11:55:47;;;;;;;5.72;5.43;;;;;;;7.86;89.66;103385.91;4445611;32;20118;-74
2022/01/18 11:58:13;;;;;;;4.30;4.10;;;;;;;7.85;90.88;103385.03;4420208;32;20168;-75
2022/01/18 12:00:53;;;;;;;4.90;4.70;;;;;;;7.94;90.75;103373.75;4420801;32;20133;-74
2022/01/18 12:03:25;;;;;;;4.50;4.20;;;;;;;7.66;90.83;103333.56;4429197;32;20082;-74
2022/01/18 12:05:51;;;;;;;5.70;5.45;;;;;;;7.32;90.56;103268.19;4422197;32;20079;-75
2022/01/18 12:08:37;;;;;;;4.60;4.28;;;;;;;7.97;90.98;103369.37;4424654;32;20114;-74
2022/01/18 12:11:12;;;;;;;3.95;3.78;;;;;;;6.87;89.60;103212.31;4439875;32;20068;-75
2022/01/18 12:13:42;;;;;;;4.97;4.75;;;;;;;7.78;90.44;103378.94;4420777;32;20580;-74
2022/01/18 12:16:29;;;;;;;4.28;4.07;;;;;;;7.73;90.38;103348.41;4423048;32;20680;-74
2022/01/18 12:18:56;;;;;;;5.12;4.93;;;;;;;7.74;89.36;103321.41;4433690;32;20586;-75
2022/01/18 12:21:24;;;;;;;4.03;3.83;;;;;;;7.95;89.53;103365.00;4424164;32;20076;-73
2022/01/18 12:23:50;;;;;;;5.32;5.12;;;;;;;7.72;88.32;103331.00;4420928;32;20436;-73
2022/01/18 12:31:53;;;;;;;;;;;;;;;7.93;90.26;103372.84;4437040;32;20072;-74
2022/01/18 12:34:34;;;;;;;3.55;3.45;;;;;;;7.94;89.99;103360.66;4447100;32;20046;-74
2022/01/18 12:37:10;;;;;;;4.47;4.28;;;;;;;8.01;89.45;103361.53;4446489;32;20063;-74
2022/01/18 12:45:05;;;;;;;4.18;3.97;;;;;;;7.78;88.76;103358.00;4441001;32;21149;-73
2022/01/18 12:47:30;;;;;;;4.53;4.33;;;;;;;7.72;88.56;103341.47;4457706;32;20486;-75